Time;durP1;ratioP1;P1;durP2;ratioP2;P2;SDS_P1;SDS_P2;PMS_P1;PMS_P2;Temp;Humidity;BMP_temperature;BMP_pressure;BME280_temperature;BME280_humidity;BME280_pressure;Samples;Min_cycle;Max_cycle;Signal;HPM_P1;HPM_P2
2022/06/26 00:01:45;;;;;;;10.30;9.30;;;;;;;19.42;88.27;98696.96;104991;1271;61188;-74
2022/06/26 00:04:11;;;;;;;18.60;15.60;;;;;;;19.37;89.00;98697.43;105191;1271;61186;-74
2022/06/26 00:06:38;;;;;;;17.30;15.00;;;;;;;19.34;89.39;98697.63;105157;1271;69372;-75
2022/06/26 00:09:05;;;;;;;16.50;13.80;;;;;;;19.34;89.81;98701.96;105150;1271;73146;-74
2022/06/26 00:11:32;;;;;;;19.10;14.40;;;;;;;19.34;89.80;98701.24;105167;1271;61284;-75
2022/06/26 00:13:59;;;;;;;15.00;12.90;;;;;;;19.36;90.17;98698.68;105211;1271;61276;-74
2022/06/26 00:16:25;;;;;;;17.70;13.40;;;;;;;19.36;90.57;98700.84;105198;1271;75172;-74
2022/06/26 00:18:52;;;;;;;16.60;14.20;;;;;;;19.34;90.83;98705.73;105174;1271;70185;-75
2022/06/26 00:21:18;;;;;;;16.30;13.80;;;;;;;19.32;91.06;98710.83;105167;1271;74825;-75
2022/06/26 00:23:45;;;;;;;14.00;12.60;;;;;;;19.27;91.32;98710.55;105010;1271;61416;-75
2022/06/26 00:26:11;;;;;;;14.90;13.30;;;;;;;19.20;91.52;98714.95;105072;1271;61262;-75
2022/06/26 00:28:38;;;;;;;15.10;13.50;;;;;;;19.09;91.91;98712.39;105189;1271;76619;-74
2022/06/26 00:31:04;;;;;;;14.70;13.20;;;;;;;18.98;92.50;98712.93;105014;1271;61146;-74
2022/06/26 00:33:31;;;;;;;16.00;14.40;;;;;;;18.92;92.97;98716.01;105042;1271;61387;-74
2022/06/26 00:35:58;;;;;;;15.20;13.50;;;;;;;18.84;93.47;98716.39;105171;1271;61556;-75
2022/06/26 00:38:24;;;;;;;18.50;16.60;;;;;;;18.81;93.84;98720.69;105194;1271;61410;-74
2022/06/26 00:40:51;;;;;;;21.50;18.50;;;;;;;18.80;94.43;98723.69;105019;1271;75138;-75
2022/06/26 00:43:17;;;;;;;18.80;17.00;;;;;;;18.82;94.96;98719.53;105188;1271;70407;-74
2022/06/26 00:45:44;;;;;;;18.20;16.50;;;;;;;18.84;95.19;98722.59;105165;1271;72613;-75
2022/06/26 00:48:11;;;;;;;18.80;16.90;;;;;;;18.84;95.32;98727.92;105165;1271;61326;-74
2022/06/26 00:50:37;;;;;;;17.70;15.90;;;;;;;18.81;95.29;98733.45;105017;1271;61239;-74
2022/06/26 00:53:04;;;;;;;17.90;16.20;;;;;;;18.77;95.56;98735.52;105035;1271;75458;-73
2022/06/26 00:55:33;;;;;;;16.90;15.30;;;;;;;18.73;95.72;98737.89;105182;1271;69194;-74
2022/06/26 00:58:00;;;;;;;17.40;15.30;;;;;;;18.69;96.11;98736.91;105168;1271;73087;-73
2022/06/26 01:00:27;;;;;;;16.70;15.10;;;;;;;18.66;96.39;98738.13;105189;1271;61369;-73
2022/06/26 01:02:53;;;;;;;17.20;15.50;;;;;;;18.63;96.35;98739.33;105180;1271;61295;-73
2022/06/26 01:05:20;;;;;;;17.30;15.50;;;;;;;18.57;96.72;98739.03;104994;1271;76098;-75
2022/06/26 01:07:47;;;;;;;17.30;15.50;;;;;;;18.49;97.30;98738.30;104966;1271;67579;-75
2022/06/26 01:10:15;;;;;;;17.10;15.70;;;;;;;18.40;97.79;98738.41;104886;1272;71614;-75
2022/06/26 01:12:42;;;;;;;18.00;16.20;;;;;;;18.35;98.15;98738.15;105175;1271;61323;-73
2022/06/26 01:15:09;;;;;;;17.30;15.30;;;;;;;18.30;98.41;98737.57;105171;1271;61179;-72
2022/06/26 01:17:36;;;;;;;17.60;16.00;;;;;;;18.26;98.89;98738.48;104979;1271;74909;-75
2022/06/26 01:20:06;;;;;;;18.50;16.90;;;;;;;18.22;99.44;98741.20;105176;1271;69216;-76
2022/06/26 01:22:33;;;;;;;19.10;17.30;;;;;;;18.20;99.84;98740.04;104937;1271;73263;-75
2022/06/26 01:25:00;;;;;;;20.00;18.20;;;;;;;18.17;100.00;98737.38;105207;1271;61285;-76
2022/06/26 01:27:26;;;;;;;19.30;17.30;;;;;;;18.17;100.00;98741.70;105146;1271;61332;-76
2022/06/26 01:29:53;;;;;;;18.80;16.80;;;;;;;18.17;100.00;98743.65;105199;1271;76409;-76
2022/06/26 01:32:20;;;;;;;18.70;17.00;;;;;;;18.15;100.00;98741.61;105015;1271;61312;-75
2022/06/26 01:34:46;;;;;;;19.70;17.70;;;;;;;18.13;100.00;98745.58;105171;1271;73682;-75
2022/06/26 01:37:13;;;;;;;17.60;15.90;;;;;;;18.04;100.00;98746.98;105001;1271;61808;-75
2022/06/26 01:39:39;;;;;;;19.70;17.90;;;;;;;17.94;100.00;98748.19;105201;1271;61368;-75
2022/06/26 01:42:06;;;;;;;16.90;15.30;;;;;;;17.90;100.00;98747.74;104978;1274;61208;-74
2022/06/26 01:44:32;;;;;;;17.80;16.10;;;;;;;17.90;100.00;98752.60;105033;1271;70109;-75
2022/06/26 01:46:59;;;;;;;18.00;16.40;;;;;;;17.86;100.00;98753.55;105040;1271;61426;-75
2022/06/26 01:49:26;;;;;;;20.20;18.30;;;;;;;17.82;100.00;98754.99;105160;1271;61294;-75
2022/06/26 01:51:53;;;;;;;20.40;18.30;;;;;;;17.81;100.00;98750.63;105071;1271;61321;-74
2022/06/26 01:54:20;;;;;;;20.40;18.40;;;;;;;17.80;100.00;98751.83;105157;1271;75076;-75
2022/06/26 01:56:47;;;;;;;19.80;17.90;;;;;;;17.78;100.00;98748.50;105169;1271;70072;-74
2022/06/26 01:59:14;;;;;;;21.20;19.10;;;;;;;17.78;100.00;98746.52;105175;1271;74134;-77
2022/06/26 02:01:41;;;;;;;20.40;18.30;;;;;;;17.78;100.00;98744.08;105158;1271;61311;-76
2022/06/26 02:04:07;;;;;;;20.90;18.70;;;;;;;17.78;100.00;98748.92;104965;1271;61666;-77
2022/06/26 02:06:34;;;;;;;20.30;18.30;;;;;;;17.77;100.00;98747.03;105185;1271;74796;-75
2022/06/26 02:09:01;;;;;;;19.20;17.60;;;;;;;17.75;100.00;98744.15;105071;1271;69514;-75
2022/06/26 02:14:13;;;;;;;20.40;18.50;;;;;;;17.70;100.00;98744.81;104988;1271;61291;-75
2022/06/26 02:16:39;;;;;;;17.70;16.10;;;;;;;17.69;100.00;98743.66;104994;1271;61220;-74
2022/06/26 02:19:06;;;;;;;18.60;16.80;;;;;;;17.68;100.00;98745.43;105006;1271;76057;-74
2022/06/26 02:21:35;;;;;;;19.20;17.40;;;;;;;17.65;100.00;98748.46;105140;1271;70139;-75
2022/06/26 02:24:02;;;;;;;18.20;16.50;;;;;;;17.62;100.00;98755.41;105171;1271;74312;-73
2022/06/26 02:26:29;;;;;;;18.80;17.00;;;;;;;17.59;100.00;98749.36;105176;1271;61286;-74
2022/06/26 02:28:55;;;;;;;16.70;15.20;;;;;;;17.58;100.00;98756.31;104941;1271;62209;-74
2022/06/26 02:31:23;;;;;;;18.40;16.70;;;;;;;17.56;100.00;98755.24;105048;1271;76322;-74
2022/06/26 02:33:50;;;;;;;17.90;16.10;;;;;;;17.56;100.00;98755.22;105197;1270;69178;-74
2022/06/26 02:36:17;;;;;;;19.70;17.70;;;;;;;17.56;100.00;98756.52;105182;1271;74345;-72
2022/06/26 02:38:43;;;;;;;18.60;16.70;;;;;;;17.53;100.00;98758.41;105160;1271;61258;-72
2022/06/26 02:41:10;;;;;;;19.30;17.30;;;;;;;17.51;100.00;98761.87;105013;1271;62124;-75
2022/06/26 02:43:37;;;;;;;18.50;16.90;;;;;;;17.49;100.00;98763.50;105174;1271;75378;-73
2022/06/26 02:46:03;;;;;;;19.20;17.50;;;;;;;17.49;100.00;98769.53;105184;1271;69168;-73
2022/06/26 02:48:30;;;;;;;18.50;16.60;;;;;;;17.52;100.00;98770.88;105214;1271;73192;-73
2022/06/26 02:50:57;;;;;;;17.10;15.50;;;;;;;17.54;100.00;98771.94;105059;1271;61301;-73
2022/06/26 02:53:23;;;;;;;18.00;16.30;;;;;;;17.56;100.00;98772.31;104972;1271;61374;-75
2022/06/26 02:55:50;;;;;;;17.90;15.90;;;;;;;17.58;100.00;98769.65;105190;1271;76471;-73
2022/06/26 02:58:16;;;;;;;17.70;15.90;;;;;;;17.60;100.00;98771.96;105006;1271;69623;-73
2022/06/26 03:00:43;;;;;;;15.90;14.20;;;;;;;17.61;100.00;98771.27;105002;1271;73207;-75
2022/06/26 03:03:10;;;;;;;15.00;13.60;;;;;;;17.57;100.00;98772.73;105025;1271;61173;-74
2022/06/26 03:05:37;;;;;;;17.70;16.10;;;;;;;17.52;100.00;98775.39;105177;1271;61275;-73
2022/06/26 03:08:04;;;;;;;17.50;15.90;;;;;;;17.59;100.00;98775.59;104980;1271;247499;-73
2022/06/26 03:10:31;;;;;;;16.10;14.70;;;;;;;17.71;100.00;98774.96;105234;1271;69254;-73
2022/06/26 03:12:57;;;;;;;16.10;14.50;;;;;;;17.81;100.00;98774.69;105167;1271;73284;-74
2022/06/26 03:15:25;;;;;;;15.60;14.10;;;;;;;17.87;100.00;98774.04;104985;1271;61402;-73
2022/06/26 03:17:51;;;;;;;16.60;14.90;;;;;;;17.94;100.00;98776.56;104991;1271;61883;-74
2022/06/26 03:20:19;;;;;;;16.20;14.30;;;;;;;18.03;100.00;98781.47;105208;1271;61170;-75
2022/06/26 03:22:47;;;;;;;15.40;14.00;;;;;;;18.10;100.00;98777.34;105166;1271;70845;-76
2022/06/26 03:25:14;;;;;;;14.80;13.50;;;;;;;18.17;100.00;98779.71;105178;1270;74837;-73
2022/06/26 03:27:41;;;;;;;15.60;14.20;;;;;;;18.25;100.00;98778.14;105167;1271;61317;-74
2022/06/26 03:30:10;;;;;;;14.50;13.30;;;;;;;18.36;100.00;98773.56;104947;1270;61789;-74
2022/06/26 03:32:37;;;;;;;14.30;12.90;;;;;;;18.99;100.00;98779.29;105199;1271;76217;-74
2022/06/26 03:35:04;;;;;;;12.60;11.40;;;;;;;20.00;100.00;98779.32;105223;1271;69679;-73
2022/06/26 03:37:31;;;;;;;12.50;11.30;;;;;;;20.81;100.00;98779.40;105201;1270;74723;-72
2022/06/26 03:39:57;;;;;;;11.70;10.70;;;;;;;21.52;100.00;98780.66;105219;1271;61464;-73
2022/06/26 03:42:24;;;;;;;11.50;10.60;;;;;;;22.12;98.38;98779.95;104985;1271;61367;-75
2022/06/26 03:44:51;;;;;;;11.10;10.10;;;;;;;22.69;94.50;98784.27;105177;1271;75425;-75
2022/06/26 03:47:18;;;;;;;11.50;10.20;;;;;;;23.22;91.48;98786.81;105182;1271;69850;-73
2022/06/26 03:49:44;;;;;;;10.70;9.80;;;;;;;23.78;88.57;98787.38;105176;1271;73132;-73
2022/06/26 03:52:11;;;;;;;11.20;10.30;;;;;;;24.36;85.84;98785.88;104948;1271;61274;-74
2022/06/26 03:54:38;;;;;;;11.40;10.40;;;;;;;24.89;83.23;98784.61;105052;1271;61278;-73
2022/06/26 03:57:04;;;;;;;11.90;10.90;;;;;;;25.41;80.23;98782.99;105230;1271;76179;-74
2022/06/26 03:59:33;;;;;;;11.20;10.20;;;;;;;25.83;77.56;98785.00;105219;1271;69145;-75
2022/06/26 04:01:59;;;;;;;10.70;9.80;;;;;;;26.31;75.31;98784.34;105170;1271;74314;-75
2022/06/26 04:04:26;;;;;;;10.10;9.20;;;;;;;26.74;73.17;98789.73;104934;1272;61333;-74
2022/06/26 04:06:53;;;;;;;11.20;10.30;;;;;;;27.08;70.75;98787.73;105197;1271;61983;-74
2022/06/26 04:09:19;;;;;;;10.30;9.40;;;;;;;27.38;68.65;98790.24;105198;1271;75331;-74
2022/06/26 04:11:46;;;;;;;10.70;9.70;;;;;;;27.63;66.90;98792.08;105192;1271;69302;-73
2022/06/26 04:14:12;;;;;;;10.50;9.50;;;;;;;27.85;65.29;98791.73;105184;1271;73674;-74
2022/06/26 04:16:39;;;;;;;9.20;8.50;;;;;;;28.03;64.11;98788.98;105246;1271;61404;-74
2022/06/26 04:19:06;;;;;;;10.80;9.80;;;;;;;28.32;63.19;98793.41;105256;1271;61966;-75
2022/06/26 04:21:32;;;;;;;10.80;9.90;;;;;;;28.45;61.92;98795.02;105239;1271;74807;-74
2022/06/26 04:23:59;;;;;;;10.50;9.50;;;;;;;28.60;61.10;98791.10;105195;1271;69396;-75
2022/06/26 04:26:25;;;;;;;10.80;9.90;;;;;;;28.76;59.86;98795.83;105171;1271;74464;-75
2022/06/26 04:28:52;;;;;;;9.10;8.40;;;;;;;29.00;58.87;98795.72;105175;1271;61366;-74
2022/06/26 04:31:18;;;;;;;10.40;9.70;;;;;;;29.16;57.74;98797.42;105184;1271;61170;-74
2022/06/26 04:33:45;;;;;;;10.10;9.20;;;;;;;29.14;57.33;98804.50;105173;1271;76092;-74
2022/06/26 04:36:12;;;;;;;10.00;9.20;;;;;;;29.30;56.56;98804.99;105211;1271;69196;-74
2022/06/26 04:38:39;;;;;;;11.00;9.90;;;;;;;29.49;55.78;98807.09;105173;1271;74485;-73
2022/06/26 04:43:51;;;;;;;11.70;10.60;;;;;;;29.84;54.58;98803.30;105199;1271;61339;-75
2022/06/26 04:46:18;;;;;;;11.10;10.20;;;;;;;30.10;53.93;98802.77;105186;1271;76270;-74
2022/06/26 04:48:44;;;;;;;11.90;10.90;;;;;;;30.35;52.92;98803.34;105191;1271;70190;-75
2022/06/26 04:51:11;;;;;;;11.10;10.20;;;;;;;30.67;52.41;98804.15;105015;1270;72667;-74
2022/06/26 04:53:38;;;;;;;10.40;9.40;;;;;;;30.79;51.21;98806.21;105080;1271;61275;-74
2022/06/26 04:56:05;;;;;;;10.10;9.30;;;;;;;30.82;50.45;98809.60;105182;1271;61714;-75
2022/06/26 04:58:32;;;;;;;10.40;9.60;;;;;;;30.91;49.89;98809.48;105196;1271;76450;-75
2022/06/26 05:00:58;;;;;;;10.60;9.70;;;;;;;30.94;48.58;98807.45;105209;1270;68825;-75
2022/06/26 05:03:25;;;;;;;9.90;9.20;;;;;;;30.90;48.25;98810.50;105179;1271;74834;-75
2022/06/26 05:05:52;;;;;;;9.20;8.50;;;;;;;30.93;47.82;98809.80;105052;1271;61324;-74
2022/06/26 05:08:19;;;;;;;8.60;7.90;;;;;;;31.02;47.35;98809.41;105179;1271;61966;-75
2022/06/26 05:10:46;;;;;;;10.90;8.30;;;;;;;31.15;46.20;98811.13;105024;1271;74491;-75
2022/06/26 05:13:12;;;;;;;8.50;7.90;;;;;;;31.19;45.70;98812.23;105147;1271;70377;-75
2022/06/26 05:15:39;;;;;;;8.50;7.60;;;;;;;31.25;45.27;98809.91;105157;1271;71372;-75
2022/06/26 05:18:05;;;;;;;9.10;8.30;;;;;;;31.36;44.12;98814.91;105108;1271;61380;-73
2022/06/26 05:20:32;;;;;;;10.00;7.80;;;;;;;31.42;43.60;98812.42;104907;1271;61291;-73
2022/06/26 05:22:59;;;;;;;8.40;7.80;;;;;;;31.49;43.54;98811.47;105185;1271;75038;-77
2022/06/26 05:25:25;;;;;;;8.90;8.00;;;;;;;31.61;43.10;98813.81;105168;1271;69133;-76
2022/06/26 05:27:52;;;;;;;9.00;8.10;;;;;;;31.80;43.02;98818.15;105157;1271;72102;-76
2022/06/26 05:30:19;;;;;;;9.50;8.70;;;;;;;31.89;42.02;98821.04;105167;1271;61288;-73
2022/06/26 05:32:45;;;;;;;8.90;8.10;;;;;;;31.90;41.78;98821.11;105198;1271;61310;-76
2022/06/26 05:35:12;;;;;;;8.60;7.90;;;;;;;31.87;41.19;98825.58;105174;1271;74675;-74
2022/06/26 05:37:39;;;;;;;9.00;8.30;;;;;;;31.98;40.95;98828.35;105018;1271;70314;-74
2022/06/26 05:40:07;;;;;;;8.10;7.40;;;;;;;31.88;40.17;98829.30;105186;1271;74341;-74
2022/06/26 05:42:33;;;;;;;8.90;8.00;;;;;;;31.84;40.20;98828.45;105142;1271;61261;-74
2022/06/26 05:45:00;;;;;;;7.80;7.20;;;;;;;31.91;40.50;98831.52;104943;1271;61855;-74
2022/06/26 05:47:27;;;;;;;8.20;7.40;;;;;;;32.04;40.22;98835.04;105061;1270;75506;-74
2022/06/26 05:49:53;;;;;;;8.00;7.30;;;;;;;32.06;39.37;98834.19;105186;1271;68627;-74
2022/06/26 05:52:20;;;;;;;9.60;8.20;;;;;;;31.96;39.93;98831.96;105144;1271;74761;-74
2022/06/26 05:54:47;;;;;;;8.90;7.90;;;;;;;31.97;40.11;98830.43;105178;1271;61340;-74
2022/06/26 05:57:14;;;;;;;9.10;8.30;;;;;;;32.15;39.49;98834.46;105195;1271;61769;-74
2022/06/26 05:59:41;;;;;;;8.60;7.70;;;;;;;32.09;39.08;98835.17;104956;1271;74831;-74
2022/06/26 06:02:07;;;;;;;8.90;8.10;;;;;;;32.15;39.37;98835.90;105162;1271;61259;-74
2022/06/26 06:04:34;;;;;;;8.90;8.20;;;;;;;32.19;39.33;98836.86;105194;1269;73133;-76
2022/06/26 06:07:00;;;;;;;8.30;7.60;;;;;;;32.19;38.45;98840.94;105178;1271;61416;-75
2022/06/26 06:09:27;;;;;;;9.40;7.20;;;;;;;32.23;38.57;98846.58;105194;1271;61249;-73
2022/06/26 06:11:54;;;;;;;9.60;8.70;;;;;;;32.20;38.35;98849.05;105196;1270;76537;-74
2022/06/26 06:14:21;;;;;;;9.40;8.60;;;;;;;32.09;37.97;98853.33;105178;1271;69213;-74
2022/06/26 06:16:48;;;;;;;10.50;9.60;;;;;;;32.00;38.13;98846.70;105197;1271;73231;-73
2022/06/26 06:19:15;;;;;;;13.40;10.70;;;;;;;32.05;38.38;98850.03;104962;1271;61384;-75
2022/06/26 06:21:41;;;;;;;12.40;10.60;;;;;;;32.03;38.26;98853.88;105217;1271;61861;-74
2022/06/26 06:24:08;;;;;;;12.20;11.00;;;;;;;32.09;38.09;98856.18;105192;1271;75165;-74
2022/06/26 06:26:35;;;;;;;12.70;11.40;;;;;;;31.89;38.44;98853.84;104905;1271;69535;-74
2022/06/26 06:29:02;;;;;;;11.20;10.10;;;;;;;31.82;38.49;98854.58;105107;1271;74437;-74
2022/06/26 06:31:29;;;;;;;11.80;10.60;;;;;;;31.81;38.72;98854.33;104974;1269;61370;-73
2022/06/26 06:33:55;;;;;;;10.40;9.50;;;;;;;31.89;38.90;98851.96;105226;1271;61736;-74
2022/06/26 06:36:22;;;;;;;10.90;9.90;;;;;;;31.87;39.04;98853.74;105176;1271;76463;-75
2022/06/26 06:38:48;;;;;;;10.80;9.70;;;;;;;31.88;39.09;98854.48;105177;1270;61181;-75
2022/06/26 06:41:15;;;;;;;10.90;9.90;;;;;;;31.92;38.98;98860.69;105141;1271;73429;-75
2022/06/26 06:43:42;;;;;;;12.40;11.20;;;;;;;31.81;38.73;98860.62;105168;1271;61411;-74
2022/06/26 06:46:09;;;;;;;13.10;11.80;;;;;;;31.62;39.05;98865.66;104864;1271;61184;-74
2022/06/26 06:48:35;;;;;;;14.40;12.70;;;;;;;31.64;39.36;98867.27;104965;1271;76205;-75
2022/06/26 06:51:02;;;;;;;16.80;12.50;;;;;;;31.72;39.02;98866.73;105180;1271;61335;-75
2022/06/26 06:53:28;;;;;;;15.70;12.40;;;;;;;31.64;39.33;98864.08;105189;1271;74747;-74
2022/06/26 06:55:55;;;;;;;13.90;11.20;;;;;;;31.62;39.42;98868.27;105062;1271;61333;-73
2022/06/26 06:58:22;;;;;;;13.50;10.00;;;;;;;31.62;39.75;98870.97;105185;1271;61291;-74
2022/06/26 07:00:48;;;;;;;13.60;12.20;;;;;;;31.62;39.64;98868.42;105054;1270;75316;-75
2022/06/26 07:03:15;;;;;;;12.10;10.60;;;;;;;31.61;39.62;98867.80;105279;1271;69261;-75
2022/06/26 07:05:42;;;;;;;11.50;10.30;;;;;;;31.61;39.32;98872.05;105168;1271;73341;-76
2022/06/26 07:08:08;;;;;;;11.10;8.80;;;;;;;31.72;39.07;98873.77;105220;1271;61528;-73
2022/06/26 07:10:35;;;;;;;10.30;9.00;;;;;;;31.83;39.00;98872.78;105205;1271;61367;-75
2022/06/26 07:13:02;;;;;;;9.60;8.70;;;;;;;31.81;38.62;98875.11;105208;1270;76075;-75
2022/06/26 07:15:28;;;;;;;9.40;8.50;;;;;;;31.70;39.12;98877.11;105223;1271;69246;-74
2022/06/26 07:17:55;;;;;;;10.00;8.60;;;;;;;31.71;38.30;98877.65;105199;1271;74267;-75
2022/06/26 07:20:22;;;;;;;9.20;8.40;;;;;;;31.58;38.32;98879.26;104920;1271;61279;-75
2022/06/26 07:22:49;;;;;;;9.90;8.10;;;;;;;31.60;38.85;98878.70;105244;1271;61278;-75
2022/06/26 07:25:15;;;;;;;10.20;9.30;;;;;;;31.68;38.60;98876.05;105244;1271;75280;-73
2022/06/26 07:27:44;;;;;;;8.90;8.10;;;;;;;31.56;38.50;98871.92;105254;1271;61297;-86
2022/06/26 07:30:11;;;;;;;9.40;8.60;;;;;;;31.43;38.72;98871.59;105278;1270;72700;-73
2022/06/26 07:32:38;;;;;;;9.10;8.20;;;;;;;31.26;38.85;98875.77;105224;1271;61282;-74
2022/06/26 07:35:05;;;;;;;8.60;7.80;;;;;;;31.02;39.15;98874.23;105236;1271;61239;-75
2022/06/26 07:37:31;;;;;;;8.30;7.40;;;;;;;30.67;40.04;98873.91;105264;1271;76121;-75
2022/06/26 07:39:58;;;;;;;8.80;7.70;;;;;;;30.40;40.52;98878.55;104961;1271;68836;-74
2022/06/26 07:42:25;;;;;;;8.80;8.00;;;;;;;30.09;40.85;98876.67;105205;1271;74244;-74
2022/06/26 07:44:51;;;;;;;8.10;7.50;;;;;;;29.76;41.27;98877.19;105237;1271;61438;-75
2022/06/26 07:47:18;;;;;;;9.10;8.20;;;;;;;29.43;41.71;98881.25;105244;1271;61335;-75
2022/06/26 07:49:44;;;;;;;8.50;7.60;;;;;;;29.13;42.43;98882.23;105230;1271;75603;-74
2022/06/26 07:52:11;;;;;;;8.50;7.80;;;;;;;28.93;43.34;98881.41;105227;1271;61229;-75
2022/06/26 07:54:38;;;;;;;7.30;6.80;;;;;;;28.89;44.12;98879.92;105215;1271;72671;-75
2022/06/26 07:57:04;;;;;;;8.20;7.50;;;;;;;28.86;44.64;98885.36;105244;1271;61297;-76
2022/06/26 07:59:31;;;;;;;8.30;7.50;;;;;;;28.90;44.86;98881.27;105243;1271;61248;-75
2022/06/26 08:01:58;;;;;;;8.70;7.70;;;;;;;28.89;44.76;98884.79;105250;1271;76687;-75
2022/06/26 08:04:25;;;;;;;9.50;7.80;;;;;;;28.92;45.41;98879.35;105409;1270;70199;-75
2022/06/26 08:06:51;;;;;;;8.20;7.40;;;;;;;28.98;45.20;98881.12;105245;1271;73476;-75
2022/06/26 08:09:18;;;;;;;7.90;7.20;;;;;;;28.91;45.19;98876.75;105211;1271;61217;-75
2022/06/26 08:11:45;;;;;;;7.80;7.10;;;;;;;28.81;45.45;98879.45;105264;1270;61259;-76
2022/06/26 08:14:11;;;;;;;7.10;6.60;;;;;;;28.79;45.41;98878.37;105241;1271;76138;-76
2022/06/26 08:16:38;;;;;;;9.30;6.80;;;;;;;28.68;45.34;98879.55;105241;1271;69479;-77
2022/06/26 08:19:05;;;;;;;7.70;7.00;;;;;;;28.63;45.44;98879.38;105241;1271;73547;-76
2022/06/26 08:24:17;;;;;;;7.40;6.70;;;;;;;28.53;46.10;98877.89;105315;1271;61225;-75
2022/06/26 08:26:44;;;;;;;6.90;6.30;;;;;;;28.62;46.47;98879.46;105231;1271;75452;-78
2022/06/26 08:29:10;;;;;;;6.40;5.50;;;;;;;28.72;45.97;98879.20;105038;1271;70727;-75
2022/06/26 08:31:37;;;;;;;6.50;5.90;;;;;;;28.66;45.08;98880.79;105258;1271;61424;-76
2022/06/26 08:34:03;;;;;;;6.60;6.00;;;;;;;28.69;45.67;98880.89;105082;1271;61277;-75
2022/06/26 08:36:30;;;;;;;5.90;5.30;;;;;;;28.82;45.37;98881.98;105021;1272;61246;-75
2022/06/26 08:38:56;;;;;;;5.90;5.40;;;;;;;28.91;45.11;98878.48;105262;1271;73284;-75
2022/06/26 08:41:28;;;;;;;6.40;5.80;;;;;;;29.00;44.53;98880.80;105268;1271;61275;-77
2022/06/26 08:44:00;;;;;;;6.40;5.80;;;;;;;29.10;44.68;98882.61;105327;1270;72990;-75
2022/06/26 08:46:28;;;;;;;6.60;6.00;;;;;;;29.24;44.46;98879.05;105249;1271;61397;-75
2022/06/26 08:48:57;;;;;;;5.60;5.10;;;;;;;29.33;44.08;98879.47;105238;1271;61185;-75
2022/06/26 08:51:24;;;;;;;6.20;5.40;;;;;;;29.38;43.25;98880.73;105252;1271;76135;-75
2022/06/26 08:53:52;;;;;;;6.20;5.40;;;;;;;29.39;43.38;98876.80;104996;1271;70223;-75
2022/06/26 08:56:19;;;;;;;5.90;5.50;;;;;;;29.50;43.22;98877.20;105069;1271;73506;-77
2022/06/26 08:58:46;;;;;;;5.50;5.00;;;;;;;29.48;41.59;98877.64;105210;1271;61279;-75
2022/06/26 09:01:14;;;;;;;5.60;4.90;;;;;;;29.36;41.72;98878.67;105260;1271;61892;-76
2022/06/26 09:03:40;;;;;;;5.10;4.50;;;;;;;29.28;40.65;98880.60;105289;1271;75258;-74
2022/06/26 09:06:07;;;;;;;5.50;5.00;;;;;;;29.14;40.09;98882.77;105273;1271;61254;-75
2022/06/26 09:08:43;;;;;;;5.40;4.40;;;;;;;29.04;40.76;98877.79;105262;1271;61219;-77
2022/06/26 09:11:11;;;;;;;5.70;4.40;;;;;;;29.21;41.19;98878.15;105243;1271;61307;-75
2022/06/26 09:13:40;;;;;;;6.60;4.40;;;;;;;29.42;40.63;98872.20;105220;1271;61383;-76
2022/06/26 09:16:08;;;;;;;5.00;4.50;;;;;;;29.58;39.93;98875.17;105273;1270;76239;-76
2022/06/26 09:18:37;;;;;;;5.00;4.50;;;;;;;29.69;39.79;98876.25;105029;1272;70781;-76
2022/06/26 09:21:05;;;;;;;5.50;4.90;;;;;;;29.83;39.67;98874.58;105298;1271;74832;-76
2022/06/26 09:23:33;;;;;;;5.00;4.60;;;;;;;29.95;39.44;98875.25;105012;1272;61374;-77
2022/06/26 09:26:01;;;;;;;4.50;4.20;;;;;;;30.01;39.10;98878.77;105273;1271;61374;-77
2022/06/26 09:28:28;;;;;;;5.10;4.60;;;;;;;30.08;38.98;98877.42;105255;1271;76451;-77
2022/06/26 09:30:55;;;;;;;4.70;4.30;;;;;;;30.15;38.73;98876.81;105501;1271;70154;-77
2022/06/26 09:33:24;;;;;;;4.70;4.00;;;;;;;30.15;38.39;98873.19;105458;1271;61394;-76
2022/06/26 09:35:51;;;;;;;4.80;4.20;;;;;;;30.19;37.65;98880.05;105245;1271;61401;-79
2022/06/26 09:38:27;;;;;;;5.30;4.80;;;;;;;30.10;37.41;98882.92;105448;1269;61063;-76
2022/06/26 09:40:57;;;;;;;4.90;4.40;;;;;;;30.07;37.83;98882.51;105112;1271;74774;-76
2022/06/26 09:43:32;;;;;;;5.40;4.70;;;;;;;30.15;38.36;98880.58;105040;1271;68031;-77
2022/06/26 09:46:02;;;;;;;4.30;3.90;;;;;;;30.21;37.52;98880.26;105241;1271;74318;-77
2022/06/26 09:48:30;;;;;;;6.50;4.30;;;;;;;30.21;37.17;98881.98;104951;1271;61311;-77
2022/06/26 09:50:57;;;;;;;5.50;4.20;;;;;;;30.26;36.74;98881.80;105288;1271;61757;-77
2022/06/26 09:53:27;;;;;;;4.60;4.10;;;;;;;30.41;37.39;98881.80;104977;1271;75712;-77
2022/06/26 09:55:55;;;;;;;4.60;4.00;;;;;;;30.55;37.04;98881.04;105294;1271;69229;-77
2022/06/26 09:58:23;;;;;;;4.90;4.40;;;;;;;30.64;36.66;98882.48;105266;1271;73040;-77
2022/06/26 10:06:31;;;;;;;5.20;3.80;;;;;;;30.90;34.83;98878.14;104976;1271;75315;-76
2022/06/26 10:09:00;;;;;;;3.90;3.30;;;;;;;30.76;34.53;98875.89;105288;1271;69181;-77
2022/06/26 10:11:29;;;;;;;;;;;;;;;30.69;34.59;98873.42;105376;1271;73159;-75
2022/06/26 10:14:10;;;;;;;5.70;4.20;;;;;;;30.66;34.21;98870.93;105013;1271;61362;-76
2022/06/26 10:16:49;;;;;;;4.70;4.30;;;;;;;30.75;34.72;98870.09;104985;1271;61277;-77
2022/06/26 10:19:37;;;;;;;3.70;3.50;;;;;;;30.82;33.58;98867.89;105251;1271;76078;-76
2022/06/26 10:22:04;;;;;;;4.30;3.70;;;;;;;30.85;32.99;98866.36;105234;1271;69382;-76
2022/06/26 10:24:30;;;;;;;4.50;3.20;;;;;;;30.94;33.21;98867.79;105213;1271;73310;-76
2022/06/26 10:27:00;;;;;;;7.40;3.50;;;;;;;31.00;32.78;98864.08;105000;1271;61399;-76
2022/06/26 10:29:34;;;;;;;7.60;3.40;;;;;;;31.07;33.08;98859.73;105349;1271;61291;-76
2022/06/26 10:32:01;;;;;;;4.10;3.20;;;;;;;31.09;32.15;98860.21;105352;1270;76703;-76
2022/06/26 10:34:28;;;;;;;3.20;3.00;;;;;;;30.98;31.38;98861.15;105254;1271;70179;-76
2022/06/26 10:37:02;;;;;;;4.10;3.10;;;;;;;30.88;31.84;98858.28;105258;1271;74078;-76
2022/06/26 10:39:49;;;;;;;3.90;3.40;;;;;;;30.90;31.85;98863.23;105242;1271;61271;-75
2022/06/26 10:45:19;;;;;;;3.90;3.40;;;;;;;31.03;32.42;98863.83;105098;1271;75109;-76
2022/06/26 10:47:52;;;;;;;3.60;3.10;;;;;;;31.13;32.14;98860.63;105224;1271;70189;-75
2022/06/26 10:50:24;;;;;;;3.70;3.20;;;;;;;31.24;32.93;98854.67;105232;1271;73714;-77
2022/06/26 10:52:51;;;;;;;6.70;3.40;;;;;;;31.37;32.37;98857.45;105306;1271;61375;-76
2022/06/26 10:55:18;;;;;;;5.00;3.90;;;;;;;31.41;32.56;98857.58;105218;1271;61164;-76
2022/06/26 10:57:45;;;;;;;3.60;3.40;;;;;;;31.46;31.86;98861.31;105220;1271;74807;-76
2022/06/26 11:00:13;;;;;;;3.60;3.30;;;;;;;31.32;31.27;98856.57;105241;1270;69109;-76
2022/06/26 11:02:44;;;;;;;4.80;3.30;;;;;;;31.26;31.68;98852.47;105211;1271;74492;-76
2022/06/26 11:05:12;;;;;;;3.60;3.30;;;;;;;31.30;31.97;98850.79;105225;1271;61425;-76
2022/06/26 11:07:49;;;;;;;3.80;3.50;;;;;;;31.37;31.98;98849.10;105303;1271;62010;-77
2022/06/26 11:10:19;;;;;;;3.80;3.00;;;;;;;31.46;32.27;98850.04;105211;1271;74624;-77
2022/06/26 11:12:49;;;;;;;3.60;3.30;;;;;;;31.53;31.83;98853.14;105216;1270;68436;-77
2022/06/26 11:15:33;;;;;;;4.50;3.40;;;;;;;31.56;32.05;98853.27;105395;1271;73422;-76
2022/06/26 11:18:06;;;;;;;4.10;3.80;;;;;;;31.64;31.52;98847.19;105458;1271;61328;-77
2022/06/26 11:20:50;;;;;;;4.60;3.80;;;;;;;31.70;31.69;98847.23;105408;1271;61342;-76
2022/06/26 11:23:24;;;;;;;3.60;3.20;;;;;;;31.72;31.71;98847.15;105279;1271;76150;-76
2022/06/26 11:26:11;;;;;;;4.00;3.00;;;;;;;31.79;31.51;98850.38;105214;1270;70479;-75
2022/06/26 11:28:41;;;;;;;6.10;3.60;;;;;;;31.84;31.61;98846.52;105346;1271;73656;-75
2022/06/26 11:31:10;;;;;;;4.30;3.60;;;;;;;31.85;30.91;98844.78;105258;1271;61271;-76
2022/06/26 11:33:39;;;;;;;4.10;3.30;;;;;;;31.83;31.03;98845.50;105106;1271;61887;-75
2022/06/26 11:36:15;;;;;;;3.60;3.30;;;;;;;31.86;31.05;98843.32;105378;1271;74556;-77